Saitama, Japan
Current Conditions -  °F | °C
As of 11:58 AM on Friday 19 Dec 2014 (Local Time) from RJTY Reporting Station
Clear Clear  
Wind Chill: 45°   Ceiling: Unl
Heat Index: 47°   Visibility: 10mi
Dew Point: 18°   Wind: 5mph
Humidity: 31%   Direction: 80°E
Pressure: 30.44"   Gusts: NA
Location:  35.87°N, 139.65°E
Report Text: RJTY 190258Z AUTO 08004KT 10SM CLR 08/M08 A3044 RMK AO2 SLP319 T00841079 58009
Loading
Personal Weather Stations






























Interactive Weather Map New forecast layout! Learn more

10-Day Weather Forecast

Advertisements
Track Severe Weather on mobile